sensor_id;sensor_type;location;lat;lon;timestamp;P1;durP1;ratioP1;P2;durP2;ratioP2
54143;SDS011;40050;47.324;18.792;2024-01-15T00:00:52;59.86;;;27.65;;
54143;SDS011;40050;47.324;18.792;2024-01-15T00:02:48;55.34;;;27.36;;
54143;SDS011;40050;47.324;18.792;2024-01-15T00:04:49;61.40;;;28.25;;
54143;SDS011;40050;47.324;18.792;2024-01-15T00:06:50;60.13;;;28.35;;
54143;SDS011;40050;47.324;18.792;2024-01-15T00:08:51;58.04;;;27.77;;
54143;SDS011;40050;47.324;18.792;2024-01-15T00:10:52;62.27;;;28.96;;
54143;SDS011;40050;47.324;18.792;2024-01-15T00:12:53;71.37;;;32.13;;
54143;SDS011;40050;47.324;18.792;2024-01-15T00:14:54;69.33;;;31.83;;
54143;SDS011;40050;47.324;18.792;2024-01-15T00:16:55;79.37;;;33.11;;
54143;SDS011;40050;47.324;18.792;2024-01-15T00:18:56;70.76;;;32.43;;
54143;SDS011;40050;47.324;18.792;2024-01-15T00:20:57;77.95;;;34.60;;
54143;SDS011;40050;47.324;18.792;2024-01-15T00:22:58;75.89;;;33.32;;
54143;SDS011;40050;47.324;18.792;2024-01-15T00:24:59;72.20;;;33.02;;
54143;SDS011;40050;47.324;18.792;2024-01-15T00:27:00;80.84;;;34.41;;
54143;SDS011;40050;47.324;18.792;2024-01-15T00:29:00;76.26;;;34.02;;
54143;SDS011;40050;47.324;18.792;2024-01-15T00:31:01;69.74;;;32.54;;
54143;SDS011;40050;47.324;18.792;2024-01-15T00:33:02;68.84;;;31.35;;
54143;SDS011;40050;47.324;18.792;2024-01-15T00:35:03;73.24;;;32.32;;
54143;SDS011;40050;47.324;18.792;2024-01-15T00:37:04;67.35;;;31.14;;
54143;SDS011;40050;47.324;18.792;2024-01-15T00:39:05;66.13;;;31.63;;
54143;SDS011;40050;47.324;18.792;2024-01-15T00:41:06;65.44;;;30.55;;
54143;SDS011;40050;47.324;18.792;2024-01-15T00:43:07;65.02;;;30.76;;
54143;SDS011;40050;47.324;18.792;2024-01-15T00:45:08;67.34;;;30.26;;
54143;SDS011;40050;47.324;18.792;2024-01-15T00:47:18;62.59;;;29.57;;
54143;SDS011;40050;47.324;18.792;2024-01-15T00:49:18;66.22;;;30.26;;
54143;SDS011;40050;47.324;18.792;2024-01-15T00:51:19;62.57;;;29.27;;
54143;SDS011;40050;47.324;18.792;2024-01-15T00:53:20;62.58;;;29.16;;
54143;SDS011;40050;47.324;18.792;2024-01-15T00:55:21;64.05;;;29.26;;
54143;SDS011;40050;47.324;18.792;2024-01-15T00:57:22;62.39;;;28.96;;
54143;SDS011;40050;47.324;18.792;2024-01-15T00:59:23;63.89;;;29.47;;
54143;SDS011;40050;47.324;18.792;2024-01-15T01:01:24;65.87;;;30.38;;
54143;SDS011;40050;47.324;18.792;2024-01-15T01:03:24;68.07;;;29.41;;
54143;SDS011;40050;47.324;18.792;2024-01-15T01:05:25;60.09;;;29.02;;
54143;SDS011;40050;47.324;18.792;2024-01-15T01:07:26;63.97;;;29.42;;
54143;SDS011;40050;47.324;18.792;2024-01-15T01:09:27;67.37;;;29.61;;
54143;SDS011;40050;47.324;18.792;2024-01-15T01:11:28;64.95;;;29.81;;
54143;SDS011;40050;47.324;18.792;2024-01-15T01:13:29;66.38;;;29.52;;
54143;SDS011;40050;47.324;18.792;2024-01-15T01:15:30;61.06;;;28.95;;
54143;SDS011;40050;47.324;18.792;2024-01-15T01:17:31;60.75;;;27.41;;
54143;SDS011;40050;47.324;18.792;2024-01-15T01:19:32;65.09;;;28.02;;
54143;SDS011;40050;47.324;18.792;2024-01-15T01:21:33;66.66;;;29.59;;
54143;SDS011;40050;47.324;18.792;2024-01-15T01:23:34;65.03;;;30.85;;
54143;SDS011;40050;47.324;18.792;2024-01-15T01:25:35;62.33;;;29.27;;
54143;SDS011;40050;47.324;18.792;2024-01-15T01:27:36;63.16;;;29.66;;
54143;SDS011;40050;47.324;18.792;2024-01-15T01:29:36;69.27;;;31.14;;
54143;SDS011;40050;47.324;18.792;2024-01-15T01:31:42;63.14;;;29.26;;
54143;SDS011;40050;47.324;18.792;2024-01-15T01:33:38;64.41;;;30.34;;
54143;SDS011;40050;47.324;18.792;2024-01-15T01:35:39;62.79;;;29.45;;
54143;SDS011;40050;47.324;18.792;2024-01-15T01:37:43;68.37;;;29.75;;
54143;SDS011;40050;47.324;18.792;2024-01-15T01:39:44;61.59;;;29.36;;
54143;SDS011;40050;47.324;18.792;2024-01-15T01:41:44;66.11;;;29.75;;
54143;SDS011;40050;47.324;18.792;2024-01-15T01:43:45;72.62;;;31.52;;
54143;SDS011;40050;47.324;18.792;2024-01-15T01:45:46;63.50;;;29.75;;
54143;SDS011;40050;47.324;18.792;2024-01-15T01:47:47;68.33;;;29.36;;
54143;SDS011;40050;47.324;18.792;2024-01-15T01:49:48;64.10;;;29.96;;
54143;SDS011;40050;47.324;18.792;2024-01-15T01:51:51;64.30;;;30.45;;
54143;SDS011;40050;47.324;18.792;2024-01-15T01:53:52;67.15;;;30.57;;
54143;SDS011;40050;47.324;18.792;2024-01-15T01:55:55;65.87;;;30.26;;
54143;SDS011;40050;47.324;18.792;2024-01-15T01:57:56;68.85;;;30.64;;
54143;SDS011;40050;47.324;18.792;2024-01-15T01:59:58;65.57;;;30.53;;
54143;SDS011;40050;47.324;18.792;2024-01-15T02:02:00;62.28;;;29.64;;
54143;SDS011;40050;47.324;18.792;2024-01-15T02:04:01;70.70;;;30.91;;
54143;SDS011;40050;47.324;18.792;2024-01-15T02:06:03;63.37;;;29.82;;
54143;SDS011;40050;47.324;18.792;2024-01-15T02:08:05;69.77;;;30.61;;
54143;SDS011;40050;47.324;18.792;2024-01-15T02:10:06;69.26;;;31.69;;
54143;SDS011;40050;47.324;18.792;2024-01-15T02:12:07;68.25;;;30.69;;
54143;SDS011;40050;47.324;18.792;2024-01-15T02:14:09;67.67;;;29.57;;
54143;SDS011;40050;47.324;18.792;2024-01-15T02:16:11;63.95;;;30.18;;
54143;SDS011;40050;47.324;18.792;2024-01-15T02:18:39;64.91;;;29.68;;
54143;SDS011;40050;47.324;18.792;2024-01-15T02:20:31;67.20;;;30.67;;
54143;SDS011;40050;47.324;18.792;2024-01-15T02:22:32;72.74;;;31.47;;
54143;SDS011;40050;47.324;18.792;2024-01-15T02:24:33;63.07;;;29.69;;
54143;SDS011;40050;47.324;18.792;2024-01-15T02:26:35;66.89;;;31.57;;
54143;SDS011;40050;47.324;18.792;2024-01-15T02:28:37;67.07;;;30.38;;
54143;SDS011;40050;47.324;18.792;2024-01-15T02:30:39;67.58;;;30.57;;
54143;SDS011;40050;47.324;18.792;2024-01-15T02:32:40;68.89;;;31.17;;
54143;SDS011;40050;47.324;18.792;2024-01-15T02:34:41;66.06;;;29.68;;
54143;SDS011;40050;47.324;18.792;2024-01-15T02:36:41;63.37;;;28.80;;
54143;SDS011;40050;47.324;18.792;2024-01-15T02:38:43;65.67;;;29.79;;
54143;SDS011;40050;47.324;18.792;2024-01-15T02:40:44;69.71;;;30.38;;
54143;SDS011;40050;47.324;18.792;2024-01-15T02:42:44;67.32;;;30.18;;
54143;SDS011;40050;47.324;18.792;2024-01-15T02:44:45;65.83;;;29.89;;
54143;SDS011;40050;47.324;18.792;2024-01-15T02:46:46;66.68;;;30.62;;
54143;SDS011;40050;47.324;18.792;2024-01-15T02:48:47;70.71;;;31.85;;
54143;SDS011;40050;47.324;18.792;2024-01-15T02:50:48;75.52;;;33.54;;
54143;SDS011;40050;47.324;18.792;2024-01-15T02:52:49;69.38;;;33.04;;
54143;SDS011;40050;47.324;18.792;2024-01-15T02:54:50;72.82;;;32.46;;
54143;SDS011;40050;47.324;18.792;2024-01-15T02:56:51;79.88;;;34.84;;
54143;SDS011;40050;47.324;18.792;2024-01-15T02:58:52;75.22;;;32.84;;
54143;SDS011;40050;47.324;18.792;2024-01-15T03:00:53;70.61;;;32.43;;
54143;SDS011;40050;47.324;18.792;2024-01-15T03:02:54;78.25;;;33.80;;
54143;SDS011;40050;47.324;18.792;2024-01-15T03:04:55;66.68;;;31.21;;
54143;SDS011;40050;47.324;18.792;2024-01-15T03:06:55;69.27;;;32.69;;
54143;SDS011;40050;47.324;18.792;2024-01-15T03:08:56;73.65;;;32.68;;
54143;SDS011;40050;47.324;18.792;2024-01-15T03:10:57;69.71;;;32.77;;
54143;SDS011;40050;47.324;18.792;2024-01-15T03:12:58;76.21;;;33.46;;
54143;SDS011;40050;47.324;18.792;2024-01-15T03:14:59;76.63;;;33.85;;
54143;SDS011;40050;47.324;18.792;2024-01-15T03:17:00;70.53;;;31.27;;
54143;SDS011;40050;47.324;18.792;2024-01-15T03:19:01;74.83;;;32.95;;
54143;SDS011;40050;47.324;18.792;2024-01-15T03:21:02;74.71;;;33.44;;
54143;SDS011;40050;47.324;18.792;2024-01-15T03:23:03;74.03;;;32.65;;
54143;SDS011;40050;47.324;18.792;2024-01-15T03:25:04;72.38;;;32.43;;
54143;SDS011;40050;47.324;18.792;2024-01-15T03:27:04;69.72;;;31.93;;
54143;SDS011;40050;47.324;18.792;2024-01-15T03:29:05;75.06;;;33.69;;
54143;SDS011;40050;47.324;18.792;2024-01-15T03:31:07;76.99;;;33.16;;
54143;SDS011;40050;47.324;18.792;2024-01-15T03:33:07;72.87;;;32.77;;
54143;SDS011;40050;47.324;18.792;2024-01-15T03:35:08;70.34;;;32.19;;
54143;SDS011;40050;47.324;18.792;2024-01-15T03:37:09;67.04;;;29.27;;
54143;SDS011;40050;47.324;18.792;2024-01-15T03:39:12;66.66;;;30.48;;
54143;SDS011;40050;47.324;18.792;2024-01-15T03:41:13;70.99;;;30.18;;
54143;SDS011;40050;47.324;18.792;2024-01-15T03:43:14;70.67;;;31.97;;
54143;SDS011;40050;47.324;18.792;2024-01-15T03:45:15;73.86;;;33.86;;
54143;SDS011;40050;47.324;18.792;2024-01-15T03:47:15;78.68;;;33.38;;
54143;SDS011;40050;47.324;18.792;2024-01-15T03:49:16;76.51;;;34.38;;
54143;SDS011;40050;47.324;18.792;2024-01-15T03:51:17;80.31;;;35.86;;
54143;SDS011;40050;47.324;18.792;2024-01-15T03:53:18;70.57;;;32.88;;
54143;SDS011;40050;47.324;18.792;2024-01-15T03:55:19;74.27;;;32.90;;
54143;SDS011;40050;47.324;18.792;2024-01-15T03:57:20;76.56;;;33.71;;
54143;SDS011;40050;47.324;18.792;2024-01-15T03:59:21;73.52;;;32.61;;
54143;SDS011;40050;47.324;18.792;2024-01-15T04:01:22;79.23;;;34.77;;
54143;SDS011;40050;47.324;18.792;2024-01-15T04:03:22;71.81;;;33.96;;
54143;SDS011;40050;47.324;18.792;2024-01-15T04:05:23;70.86;;;33.85;;
54143;SDS011;40050;47.324;18.792;2024-01-15T04:07:24;73.38;;;34.74;;
54143;SDS011;40050;47.324;18.792;2024-01-15T04:09:25;78.95;;;34.33;;
54143;SDS011;40050;47.324;18.792;2024-01-15T04:11:26;81.28;;;34.61;;
54143;SDS011;40050;47.324;18.792;2024-01-15T04:13:27;76.83;;;33.13;;
54143;SDS011;40050;47.324;18.792;2024-01-15T04:15:28;72.97;;;33.41;;
54143;SDS011;40050;47.324;18.792;2024-01-15T04:17:29;68.79;;;33.01;;
54143;SDS011;40050;47.324;18.792;2024-01-15T04:19:30;71.55;;;32.11;;
54143;SDS011;40050;47.324;18.792;2024-01-15T04:21:30;74.53;;;33.10;;
54143;SDS011;40050;47.324;18.792;2024-01-15T04:23:32;73.12;;;31.60;;
54143;SDS011;40050;47.324;18.792;2024-01-15T04:25:32;73.07;;;32.19;;
54143;SDS011;40050;47.324;18.792;2024-01-15T04:27:33;64.27;;;29.81;;
54143;SDS011;40050;47.324;18.792;2024-01-15T04:29:34;71.18;;;31.97;;
54143;SDS011;40050;47.324;18.792;2024-01-15T04:31:35;69.85;;;31.46;;
54143;SDS011;40050;47.324;18.792;2024-01-15T04:33:36;67.05;;;32.03;;
54143;SDS011;40050;47.324;18.792;2024-01-15T04:35:37;69.72;;;31.93;;
54143;SDS011;40050;47.324;18.792;2024-01-15T04:37:39;75.06;;;32.70;;
54143;SDS011;40050;47.324;18.792;2024-01-15T04:39:39;65.75;;;31.51;;
54143;SDS011;40050;47.324;18.792;2024-01-15T04:41:43;75.46;;;34.06;;
54143;SDS011;40050;47.324;18.792;2024-01-15T04:43:44;75.56;;;31.99;;
54143;SDS011;40050;47.324;18.792;2024-01-15T04:45:45;79.28;;;33.84;;
54143;SDS011;40050;47.324;18.792;2024-01-15T04:47:46;73.20;;;33.63;;
54143;SDS011;40050;47.324;18.792;2024-01-15T04:49:47;81.87;;;33.82;;
54143;SDS011;40050;47.324;18.792;2024-01-15T04:51:48;84.55;;;34.90;;
54143;SDS011;40050;47.324;18.792;2024-01-15T04:53:49;81.88;;;35.76;;
54143;SDS011;40050;47.324;18.792;2024-01-15T04:55:49;88.16;;;35.34;;
54143;SDS011;40050;47.324;18.792;2024-01-15T04:57:50;85.18;;;35.55;;
54143;SDS011;40050;47.324;18.792;2024-01-15T04:59:51;90.01;;;37.10;;
54143;SDS011;40050;47.324;18.792;2024-01-15T05:01:52;99.72;;;36.89;;
54143;SDS011;40050;47.324;18.792;2024-01-15T05:03:53;110.93;;;38.95;;
54143;SDS011;40050;47.324;18.792;2024-01-15T05:05:54;109.91;;;40.74;;
54143;SDS011;40050;47.324;18.792;2024-01-15T05:07:55;132.28;;;43.20;;
54143;SDS011;40050;47.324;18.792;2024-01-15T05:09:56;119.41;;;41.85;;
54143;SDS011;40050;47.324;18.792;2024-01-15T05:11:57;101.43;;;40.16;;
54143;SDS011;40050;47.324;18.792;2024-01-15T05:13:57;109.52;;;39.07;;
54143;SDS011;40050;47.324;18.792;2024-01-15T05:15:58;99.56;;;40.11;;
54143;SDS011;40050;47.324;18.792;2024-01-15T05:17:59;96.00;;;39.63;;
54143;SDS011;40050;47.324;18.792;2024-01-15T05:20:00;112.76;;;39.92;;
54143;SDS011;40050;47.324;18.792;2024-01-15T05:22:01;113.33;;;37.98;;
54143;SDS011;40050;47.324;18.792;2024-01-15T05:24:02;107.05;;;37.31;;
54143;SDS011;40050;47.324;18.792;2024-01-15T05:26:03;101.46;;;37.39;;
54143;SDS011;40050;47.324;18.792;2024-01-15T05:28:05;96.56;;;35.92;;
54143;SDS011;40050;47.324;18.792;2024-01-15T05:30:05;88.99;;;37.19;;
54143;SDS011;40050;47.324;18.792;2024-01-15T05:32:07;83.64;;;37.47;;
54143;SDS011;40050;47.324;18.792;2024-01-15T05:34:08;83.14;;;37.67;;
54143;SDS011;40050;47.324;18.792;2024-01-15T05:36:09;99.26;;;37.85;;
54143;SDS011;40050;47.324;18.792;2024-01-15T05:38:11;89.48;;;37.66;;
54143;SDS011;40050;47.324;18.792;2024-01-15T05:40:12;90.32;;;38.15;;
54143;SDS011;40050;47.324;18.792;2024-01-15T05:42:12;81.61;;;36.61;;
54143;SDS011;40050;47.324;18.792;2024-01-15T05:44:13;88.57;;;37.94;;
54143;SDS011;40050;47.324;18.792;2024-01-15T05:46:15;91.39;;;37.66;;
54143;SDS011;40050;47.324;18.792;2024-01-15T05:48:15;83.61;;;36.10;;
54143;SDS011;40050;47.324;18.792;2024-01-15T05:50:16;87.20;;;37.56;;
54143;SDS011;40050;47.324;18.792;2024-01-15T05:52:17;83.96;;;38.00;;
54143;SDS011;40050;47.324;18.792;2024-01-15T05:54:18;94.41;;;38.57;;
54143;SDS011;40050;47.324;18.792;2024-01-15T05:56:19;88.05;;;38.86;;
54143;SDS011;40050;47.324;18.792;2024-01-15T05:58:20;92.05;;;38.46;;
54143;SDS011;40050;47.324;18.792;2024-01-15T06:00:21;86.99;;;37.09;;
54143;SDS011;40050;47.324;18.792;2024-01-15T06:02:22;86.01;;;37.24;;
54143;SDS011;40050;47.324;18.792;2024-01-15T06:04:23;79.53;;;35.72;;
54143;SDS011;40050;47.324;18.792;2024-01-15T06:06:24;84.14;;;35.83;;
54143;SDS011;40050;47.324;18.792;2024-01-15T06:08:25;76.25;;;34.76;;
54143;SDS011;40050;47.324;18.792;2024-01-15T06:10:26;76.97;;;35.18;;
54143;SDS011;40050;47.324;18.792;2024-01-15T06:12:27;79.36;;;35.50;;
54143;SDS011;40050;47.324;18.792;2024-01-15T06:14:27;77.71;;;35.81;;
54143;SDS011;40050;47.324;18.792;2024-01-15T06:16:28;76.26;;;35.14;;
54143;SDS011;40050;47.324;18.792;2024-01-15T06:18:29;74.43;;;34.26;;
54143;SDS011;40050;47.324;18.792;2024-01-15T06:20:30;75.18;;;34.26;;
54143;SDS011;40050;47.324;18.792;2024-01-15T06:22:31;79.52;;;33.57;;
54143;SDS011;40050;47.324;18.792;2024-01-15T06:24:32;75.15;;;34.96;;
54143;SDS011;40050;47.324;18.792;2024-01-15T06:26:33;75.33;;;34.07;;
54143;SDS011;40050;47.324;18.792;2024-01-15T06:28:34;76.13;;;35.25;;
54143;SDS011;40050;47.324;18.792;2024-01-15T06:30:35;81.64;;;36.34;;
54143;SDS011;40050;47.324;18.792;2024-01-15T06:32:36;78.41;;;36.24;;
54143;SDS011;40050;47.324;18.792;2024-01-15T06:34:37;77.73;;;35.17;;
54143;SDS011;40050;47.324;18.792;2024-01-15T06:36:38;83.28;;;36.13;;
54143;SDS011;40050;47.324;18.792;2024-01-15T06:38:39;77.72;;;34.59;;
54143;SDS011;40050;47.324;18.792;2024-01-15T06:40:40;75.53;;;34.33;;
54143;SDS011;40050;47.324;18.792;2024-01-15T06:42:41;83.01;;;36.44;;
54143;SDS011;40050;47.324;18.792;2024-01-15T06:44:42;74.14;;;34.09;;
54143;SDS011;40050;47.324;18.792;2024-01-15T06:46:43;79.13;;;37.34;;
54143;SDS011;40050;47.324;18.792;2024-01-15T06:48:44;79.94;;;36.77;;
54143;SDS011;40050;47.324;18.792;2024-01-15T06:50:45;79.28;;;35.81;;
54143;SDS011;40050;47.324;18.792;2024-01-15T06:52:46;78.96;;;35.90;;
54143;SDS011;40050;47.324;18.792;2024-01-15T06:54:47;79.87;;;37.18;;
54143;SDS011;40050;47.324;18.792;2024-01-15T06:56:48;80.64;;;37.29;;
54143;SDS011;40050;47.324;18.792;2024-01-15T06:58:48;78.32;;;37.01;;
54143;SDS011;40050;47.324;18.792;2024-01-15T07:00:49;74.97;;;36.30;;
54143;SDS011;40050;47.324;18.792;2024-01-15T07:02:50;81.87;;;38.53;;
54143;SDS011;40050;47.324;18.792;2024-01-15T07:04:51;90.35;;;39.21;;
54143;SDS011;40050;47.324;18.792;2024-01-15T07:06:52;86.89;;;39.20;;
54143;SDS011;40050;47.324;18.792;2024-01-15T07:08:53;82.14;;;38.31;;
54143;SDS011;40050;47.324;18.792;2024-01-15T07:10:54;79.53;;;37.24;;
54143;SDS011;40050;47.324;18.792;2024-01-15T07:12:55;78.95;;;36.35;;
54143;SDS011;40050;47.324;18.792;2024-01-15T07:14:56;74.41;;;36.06;;
54143;SDS011;40050;47.324;18.792;2024-01-15T07:16:56;88.29;;;40.68;;
54143;SDS011;40050;47.324;18.792;2024-01-15T07:18:57;84.37;;;38.33;;
54143;SDS011;40050;47.324;18.792;2024-01-15T07:20:58;83.21;;;38.02;;
54143;SDS011;40050;47.324;18.792;2024-01-15T07:22:59;81.64;;;40.18;;
54143;SDS011;40050;47.324;18.792;2024-01-15T07:25:00;90.02;;;41.64;;
54143;SDS011;40050;47.324;18.792;2024-01-15T07:27:01;110.91;;;49.27;;
54143;SDS011;40050;47.324;18.792;2024-01-15T07:29:02;148.11;;;63.05;;
54143;SDS011;40050;47.324;18.792;2024-01-15T07:31:03;135.58;;;57.33;;
54143;SDS011;40050;47.324;18.792;2024-01-15T07:33:04;117.78;;;53.29;;
54143;SDS011;40050;47.324;18.792;2024-01-15T07:35:05;106.73;;;49.26;;
54143;SDS011;40050;47.324;18.792;2024-01-15T07:37:06;106.25;;;49.06;;
54143;SDS011;40050;47.324;18.792;2024-01-15T07:39:07;106.17;;;47.88;;
54143;SDS011;40050;47.324;18.792;2024-01-15T07:41:08;100.18;;;45.73;;
54143;SDS011;40050;47.324;18.792;2024-01-15T07:43:09;107.73;;;48.08;;
54143;SDS011;40050;47.324;18.792;2024-01-15T07:45:10;100.06;;;45.13;;
54143;SDS011;40050;47.324;18.792;2024-01-15T07:47:10;100.03;;;44.83;;
54143;SDS011;40050;47.324;18.792;2024-01-15T07:49:11;100.63;;;44.43;;
54143;SDS011;40050;47.324;18.792;2024-01-15T07:51:12;102.73;;;45.90;;
54143;SDS011;40050;47.324;18.792;2024-01-15T07:53:13;101.84;;;46.80;;
54143;SDS011;40050;47.324;18.792;2024-01-15T07:55:14;97.45;;;45.62;;
54143;SDS011;40050;47.324;18.792;2024-01-15T07:57:28;89.50;;;43.07;;
54143;SDS011;40050;47.324;18.792;2024-01-15T07:59:29;91.88;;;42.67;;
54143;SDS011;40050;47.324;18.792;2024-01-15T08:01:30;91.62;;;42.86;;
54143;SDS011;40050;47.324;18.792;2024-01-15T08:03:31;92.66;;;42.87;;
54143;SDS011;40050;47.324;18.792;2024-01-15T08:05:32;91.35;;;42.18;;
54143;SDS011;40050;47.324;18.792;2024-01-15T08:07:33;90.47;;;42.74;;
54143;SDS011;40050;47.324;18.792;2024-01-15T08:09:34;91.02;;;43.40;;
54143;SDS011;40050;47.324;18.792;2024-01-15T08:11:35;101.02;;;44.82;;
54143;SDS011;40050;47.324;18.792;2024-01-15T08:13:36;100.20;;;46.39;;
54143;SDS011;40050;47.324;18.792;2024-01-15T08:15:37;100.76;;;46.98;;
54143;SDS011;40050;47.324;18.792;2024-01-15T08:17:38;91.30;;;45.73;;
54143;SDS011;40050;47.324;18.792;2024-01-15T08:19:39;85.94;;;42.81;;
54143;SDS011;40050;47.324;18.792;2024-01-15T08:21:40;88.93;;;41.64;;
54143;SDS011;40050;47.324;18.792;2024-01-15T08:23:40;92.55;;;43.69;;
54143;SDS011;40050;47.324;18.792;2024-01-15T08:25:41;101.71;;;45.42;;
54143;SDS011;40050;47.324;18.792;2024-01-15T08:27:42;93.78;;;43.25;;
54143;SDS011;40050;47.324;18.792;2024-01-15T08:29:43;92.70;;;41.44;;
54143;SDS011;40050;47.324;18.792;2024-01-15T08:31:44;95.13;;;44.74;;
54143;SDS011;40050;47.324;18.792;2024-01-15T08:33:45;99.17;;;45.04;;
54143;SDS011;40050;47.324;18.792;2024-01-15T08:35:46;90.92;;;42.25;;
54143;SDS011;40050;47.324;18.792;2024-01-15T08:37:47;86.15;;;41.20;;
54143;SDS011;40050;47.324;18.792;2024-01-15T08:39:48;78.20;;;39.30;;
54143;SDS011;40050;47.324;18.792;2024-01-15T08:41:49;77.80;;;37.66;;
54143;SDS011;40050;47.324;18.792;2024-01-15T08:43:50;79.56;;;37.54;;
54143;SDS011;40050;47.324;18.792;2024-01-15T08:45:50;79.68;;;40.01;;
54143;SDS011;40050;47.324;18.792;2024-01-15T08:47:51;76.75;;;39.13;;
54143;SDS011;40050;47.324;18.792;2024-01-15T08:49:52;81.60;;;40.33;;
54143;SDS011;40050;47.324;18.792;2024-01-15T08:51:53;76.03;;;37.59;;
54143;SDS011;40050;47.324;18.792;2024-01-15T08:53:55;73.22;;;35.59;;
54143;SDS011;40050;47.324;18.792;2024-01-15T08:55:55;70.80;;;36.12;;
54143;SDS011;40050;47.324;18.792;2024-01-15T08:57:56;74.37;;;36.16;;
54143;SDS011;40050;47.324;18.792;2024-01-15T08:59:57;69.85;;;35.30;;
54143;SDS011;40050;47.324;18.792;2024-01-15T09:01:58;68.68;;;34.85;;
54143;SDS011;40050;47.324;18.792;2024-01-15T09:03:59;69.78;;;35.06;;
54143;SDS011;40050;47.324;18.792;2024-01-15T09:06:00;67.96;;;34.46;;
54143;SDS011;40050;47.324;18.792;2024-01-15T09:08:01;66.48;;;34.60;;
54143;SDS011;40050;47.324;18.792;2024-01-15T09:10:01;68.37;;;35.18;;
54143;SDS011;40050;47.324;18.792;2024-01-15T09:12:02;67.54;;;35.12;;
54143;SDS011;40050;47.324;18.792;2024-01-15T09:14:03;69.25;;;34.54;;
54143;SDS011;40050;47.324;18.792;2024-01-15T09:16:04;67.57;;;31.27;;
54143;SDS011;40050;47.324;18.792;2024-01-15T09:18:05;57.78;;;29.61;;
54143;SDS011;40050;47.324;18.792;2024-01-15T09:20:06;64.07;;;29.61;;
54143;SDS011;40050;47.324;18.792;2024-01-15T09:22:09;58.09;;;29.81;;
54143;SDS011;40050;47.324;18.792;2024-01-15T09:24:10;57.43;;;27.55;;
54143;SDS011;40050;47.324;18.792;2024-01-15T09:26:11;59.99;;;28.94;;
54143;SDS011;40050;47.324;18.792;2024-01-15T09:28:11;65.68;;;28.57;;
54143;SDS011;40050;47.324;18.792;2024-01-15T09:30:13;60.12;;;29.38;;
54143;SDS011;40050;47.324;18.792;2024-01-15T09:32:14;57.88;;;28.90;;
54143;SDS011;40050;47.324;18.792;2024-01-15T09:34:14;55.97;;;27.01;;
54143;SDS011;40050;47.324;18.792;2024-01-15T09:36:15;52.07;;;25.62;;
54143;SDS011;40050;47.324;18.792;2024-01-15T09:38:16;47.19;;;24.32;;
54143;SDS011;40050;47.324;18.792;2024-01-15T09:40:17;41.32;;;21.14;;
54143;SDS011;40050;47.324;18.792;2024-01-15T09:42:19;35.07;;;16.56;;
54143;SDS011;40050;47.324;18.792;2024-01-15T09:44:20;20.31;;;10.58;;
54143;SDS011;40050;47.324;18.792;2024-01-15T09:46:22;17.47;;;9.18;;
54143;SDS011;40050;47.324;18.792;2024-01-15T09:48:23;17.21;;;8.89;;
54143;SDS011;40050;47.324;18.792;2024-01-15T09:50:24;17.13;;;8.39;;
54143;SDS011;40050;47.324;18.792;2024-01-15T09:52:25;17.54;;;8.89;;
54143;SDS011;40050;47.324;18.792;2024-01-15T09:54:26;15.58;;;8.29;;
54143;SDS011;40050;47.324;18.792;2024-01-15T09:56:27;19.24;;;8.29;;
54143;SDS011;40050;47.324;18.792;2024-01-15T09:58:30;17.18;;;8.39;;
54143;SDS011;40050;47.324;18.792;2024-01-15T10:00:33;15.11;;;8.09;;
54143;SDS011;40050;47.324;18.792;2024-01-15T10:02:34;14.14;;;6.89;;
54143;SDS011;40050;47.324;18.792;2024-01-15T10:04:35;13.64;;;7.19;;
54143;SDS011;40050;47.324;18.792;2024-01-15T10:06:37;12.67;;;6.69;;
54143;SDS011;40050;47.324;18.792;2024-01-15T10:08:38;14.96;;;7.20;;
54143;SDS011;40050;47.324;18.792;2024-01-15T10:10:39;13.18;;;6.80;;
54143;SDS011;40050;47.324;18.792;2024-01-15T10:12:41;14.38;;;7.10;;
54143;SDS011;40050;47.324;18.792;2024-01-15T10:14:42;12.39;;;6.20;;
54143;SDS011;40050;47.324;18.792;2024-01-15T10:16:43;12.88;;;6.60;;
54143;SDS011;40050;47.324;18.792;2024-01-15T10:18:44;12.69;;;6.70;;
54143;SDS011;40050;47.324;18.792;2024-01-15T10:20:45;13.57;;;6.30;;
54143;SDS011;40050;47.324;18.792;2024-01-15T10:22:46;13.29;;;6.90;;
54143;SDS011;40050;47.324;18.792;2024-01-15T10:24:48;14.17;;;7.20;;
54143;SDS011;40050;47.324;18.792;2024-01-15T10:26:49;16.17;;;6.60;;
54143;SDS011;40050;47.324;18.792;2024-01-15T10:28:50;14.58;;;7.50;;
54143;SDS011;40050;47.324;18.792;2024-01-15T10:30:51;14.77;;;7.70;;
54143;SDS011;40050;47.324;18.792;2024-01-15T10:32:58;13.89;;;7.20;;
54143;SDS011;40050;47.324;18.792;2024-01-15T10:34:54;16.56;;;7.60;;
54143;SDS011;40050;47.324;18.792;2024-01-15T10:36:57;14.48;;;7.60;;
54143;SDS011;40050;47.324;18.792;2024-01-15T10:38:56;15.06;;;7.50;;
54143;SDS011;40050;47.324;18.792;2024-01-15T10:40:57;17.36;;;7.00;;
54143;SDS011;40050;47.324;18.792;2024-01-15T10:42:57;14.39;;;6.90;;
54143;SDS011;40050;47.324;18.792;2024-01-15T10:44:58;13.10;;;6.70;;
54143;SDS011;40050;47.324;18.792;2024-01-15T10:47:00;12.90;;;6.70;;
54143;SDS011;40050;47.324;18.792;2024-01-15T10:49:01;13.49;;;6.70;;
54143;SDS011;40050;47.324;18.792;2024-01-15T10:51:03;11.91;;;6.10;;
54143;SDS011;40050;47.324;18.792;2024-01-15T10:53:05;12.11;;;6.50;;
54143;SDS011;40050;47.324;18.792;2024-01-15T10:55:08;12.21;;;5.70;;
54143;SDS011;40050;47.324;18.792;2024-01-15T10:57:10;15.39;;;7.10;;
54143;SDS011;40050;47.324;18.792;2024-01-15T10:59:11;9.73;;;5.60;;
54143;SDS011;40050;47.324;18.792;2024-01-15T11:01:12;10.33;;;5.70;;
54143;SDS011;40050;47.324;18.792;2024-01-15T11:03:13;11.32;;;5.50;;
54143;SDS011;40050;47.324;18.792;2024-01-15T11:05:14;10.73;;;5.80;;
54143;SDS011;40050;47.324;18.792;2024-01-15T11:07:16;10.43;;;5.60;;
54143;SDS011;40050;47.324;18.792;2024-01-15T11:09:20;10.53;;;6.00;;
54143;SDS011;40050;47.324;18.792;2024-01-15T11:11:22;9.63;;;5.30;;
54143;SDS011;40050;47.324;18.792;2024-01-15T11:13:39;10.63;;;5.70;;
54143;SDS011;40050;47.324;18.792;2024-01-15T11:15:32;9.84;;;5.60;;
54143;SDS011;40050;47.324;18.792;2024-01-15T11:18:18;10.53;;;5.30;;
54143;SDS011;40050;47.324;18.792;2024-01-15T11:19:36;10.73;;;5.70;;
54143;SDS011;40050;47.324;18.792;2024-01-15T11:21:58;9.44;;;5.20;;
54143;SDS011;40050;47.324;18.792;2024-01-15T11:24:11;10.03;;;5.60;;
54143;SDS011;40050;47.324;18.792;2024-01-15T11:27:00;9.94;;;5.30;;
54143;SDS011;40050;47.324;18.792;2024-01-15T11:28:46;11.03;;;5.60;;
54143;SDS011;40050;47.324;18.792;2024-01-15T11:30:32;10.03;;;5.40;;
54143;SDS011;40050;47.324;18.792;2024-01-15T11:32:34;10.04;;;5.60;;
54143;SDS011;40050;47.324;18.792;2024-01-15T11:38:37;9.15;;;4.60;;
54143;SDS011;40050;47.324;18.792;2024-01-15T11:40:38;9.55;;;5.30;;
54143;SDS011;40050;47.324;18.792;2024-01-15T11:42:38;8.35;;;4.70;;
54143;SDS011;40050;47.324;18.792;2024-01-15T11:44:39;8.55;;;4.50;;